Time;durP1;ratioP1;P1;durP2;ratioP2;P2;SDS_P1;SDS_P2;PMS_P1;PMS_P2;Temp;Humidity;BMP_temperature;BMP_pressure;BME280_temperature;BME280_humidity;BME280_pressure;Samples;Min_cycle;Max_cycle;Signal;HPM_P1;HPM_P2
2022/02/14 00:01:15;;;;;;;4.15;2.20;;;;;;;9.21;48.60;98004.22;2622096;54;20038;-64
2022/02/14 00:03:47;;;;;;;5.95;2.60;;;;;;;9.21;48.35;98001.59;2622907;51;20026;-64
2022/02/14 00:06:17;;;;;;;6.50;2.90;;;;;;;9.21;48.70;98006.06;2622679;54;20557;-64
2022/02/14 00:08:47;;;;;;;3.35;2.45;;;;;;;9.20;48.81;97997.34;2624174;39;20750;-64
2022/02/14 00:11:16;;;;;;;5.72;2.28;;;;;;;9.21;48.57;97985.75;2622134;51;20569;-64
2022/02/14 00:13:46;;;;;;;5.95;2.90;;;;;;;9.20;48.70;97994.69;2622883;54;20031;-64
2022/02/14 00:16:16;;;;;;;5.97;2.53;;;;;;;9.19;48.50;98001.00;2621536;47;20572;-64
2022/02/14 00:18:48;;;;;;;5.43;2.38;;;;;;;9.18;48.85;97994.06;2622220;54;20031;-64
2022/02/14 00:21:18;;;;;;;3.45;2.35;;;;;;;9.21;49.10;97988.41;2622090;47;20026;-64
2022/02/14 00:23:47;;;;;;;5.68;2.42;;;;;;;9.17;48.87;97984.53;2622705;39;20521;-64
2022/02/14 00:26:17;;;;;;;5.00;2.50;;;;;;;9.16;48.85;97982.94;2622496;54;20058;-64
2022/02/14 00:28:47;;;;;;;7.20;2.85;;;;;;;9.16;49.32;97983.75;2622906;54;20034;-64
2022/02/14 00:31:17;;;;;;;4.35;2.10;;;;;;;9.15;49.38;97971.56;2623185;54;20030;-64
2022/02/14 00:33:49;;;;;;;6.35;2.88;;;;;;;9.14;49.42;97980.50;2623660;54;20023;-64
2022/02/14 00:36:20;;;;;;;6.32;2.50;;;;;;;9.15;49.12;97976.03;2623269;54;20042;-64
2022/02/14 00:38:50;;;;;;;6.50;2.60;;;;;;;9.13;49.14;97965.69;2624823;54;20043;-64
2022/02/14 00:41:21;;;;;;;6.90;2.58;;;;;;;9.10;49.72;97966.09;2626062;54;20033;-64
2022/02/14 00:43:52;;;;;;;6.32;2.95;;;;;;;9.09;49.72;97961.81;2625215;54;20039;-64
2022/02/14 00:46:22;;;;;;;5.68;2.47;;;;;;;9.08;49.77;97962.84;2625552;54;20038;-63
2022/02/14 00:48:54;;;;;;;7.80;2.30;;;;;;;9.05;49.64;97949.25;2626134;54;20061;-63
2022/02/14 00:51:24;;;;;;;3.97;2.55;;;;;;;9.07;50.11;97963.06;2626294;54;20041;-63
2022/02/14 00:53:54;;;;;;;3.80;2.33;;;;;;;9.05;49.81;97957.16;2625402;54;20042;-64
2022/02/14 00:56:25;;;;;;;4.47;2.45;;;;;;;9.05;50.12;97949.25;2628252;39;20454;-64
2022/02/14 00:58:55;;;;;;;6.20;2.42;;;;;;;9.06;50.42;97949.06;2625113;54;20038;-64
2022/02/14 01:01:26;;;;;;;4.70;2.67;;;;;;;9.05;50.12;97941.34;2625934;54;20043;-64
2022/02/14 01:04:00;;;;;;;4.47;2.30;;;;;;;9.06;50.13;97940.31;2625840;54;20030;-64
2022/02/14 01:06:31;;;;;;;3.05;2.33;;;;;;;9.05;50.69;97943.97;2626373;54;20030;-64
2022/02/14 01:09:00;;;;;;;3.28;2.05;;;;;;;9.05;50.29;97928.16;2625246;47;20034;-63
2022/02/14 01:11:31;;;;;;;4.50;2.05;;;;;;;9.05;50.65;97926.34;2625175;46;21935;-63
2022/02/14 01:14:01;;;;;;;4.55;2.17;;;;;;;9.03;50.40;97928.38;2626085;54;20589;-64
2022/02/14 01:16:30;;;;;;;4.43;2.15;;;;;;;9.02;50.62;97928.56;2626619;54;20037;-63
2022/02/14 01:19:04;;;;;;;7.45;2.20;;;;;;;9.01;50.81;97932.22;2625856;46;20053;-65
2022/02/14 01:21:33;;;;;;;4.20;2.67;;;;;;;9.01;51.30;97932.22;2626509;54;20042;-64
2022/02/14 01:24:03;;;;;;;5.65;2.35;;;;;;;9.01;51.22;97937.50;2626056;54;20039;-63
2022/02/14 01:26:32;;;;;;;4.40;1.95;;;;;;;9.04;51.30;97935.28;2626045;54;20031;-63
2022/02/14 01:29:02;;;;;;;5.32;2.13;;;;;;;9.08;51.23;97943.59;2626608;54;20038;-63
2022/02/14 01:31:32;;;;;;;3.15;1.90;;;;;;;9.10;51.37;97926.56;2626618;54;20644;-64
2022/02/14 01:34:05;;;;;;;4.43;2.25;;;;;;;9.07;51.48;97931.44;2625798;54;20022;-64
2022/02/14 01:36:34;;;;;;;3.17;2.08;;;;;;;9.09;51.53;97932.03;2626933;39;20429;-64
2022/02/14 01:39:05;;;;;;;2.97;2.20;;;;;;;9.07;51.22;97926.97;2625598;47;20031;-64
2022/02/14 01:41:35;;;;;;;7.57;2.67;;;;;;;9.07;51.63;97928.78;2625800;54;20534;-64
2022/02/14 01:44:04;;;;;;;7.28;2.20;;;;;;;9.06;51.82;97919.22;2625655;54;20038;-64
2022/02/14 01:46:34;;;;;;;2.30;2.10;;;;;;;9.05;51.52;97918.44;2625727;54;20578;-64
2022/02/14 01:49:06;;;;;;;6.20;2.10;;;;;;;9.07;51.79;97918.25;2625014;54;20038;-65
2022/02/14 01:51:36;;;;;;;4.20;1.88;;;;;;;9.03;51.95;97917.03;2623353;54;20045;-65
2022/02/14 01:54:07;;;;;;;4.75;2.08;;;;;;;9.02;52.12;97895.13;2623040;54;20041;-65
2022/02/14 01:56:36;;;;;;;2.40;1.60;;;;;;;9.06;52.23;97900.78;2622884;54;20034;-64
2022/02/14 01:59:06;;;;;;;4.55;2.25;;;;;;;9.07;52.24;97900.59;2624957;39;20430;-64
2022/02/14 02:01:36;;;;;;;3.35;1.70;;;;;;;9.08;51.97;97893.50;2623677;54;20034;-64
2022/02/14 02:04:08;;;;;;;6.32;2.28;;;;;;;9.11;52.03;97888.63;2622978;54;20027;-65
2022/02/14 02:06:38;;;;;;;2.97;2.15;;;;;;;9.12;52.15;97892.88;2622388;54;20792;-63
2022/02/14 02:09:08;;;;;;;2.97;1.67;;;;;;;9.15;52.44;97887.19;2622590;54;20022;-64
2022/02/14 02:14:22;;;;;;;6.20;2.33;;;;;;;9.17;52.47;97879.88;2622842;54;20025;-63
2022/02/14 02:16:52;;;;;;;6.70;2.10;;;;;;;9.21;52.34;97869.72;2624484;54;20021;-64
2022/02/14 02:19:25;;;;;;;5.63;2.30;;;;;;;9.21;52.48;97871.56;2626153;54;20538;-63
2022/02/14 02:21:55;;;;;;;3.10;2.10;;;;;;;9.18;52.68;97872.78;2625591;47;20553;-63
2022/02/14 02:24:26;;;;;;;4.50;2.08;;;;;;;9.18;52.78;97859.59;2625833;54;20030;-64
2022/02/14 02:27:04;;;;;;;4.72;1.67;;;;;;;9.21;53.21;97863.66;2626044;54;20026;-63
2022/02/14 02:29:39;;;;;;;4.85;1.98;;;;;;;9.21;52.97;97853.91;2625467;54;20026;-64
2022/02/14 02:32:11;;;;;;;2.88;1.85;;;;;;;9.24;53.34;97857.97;2623039;54;20027;-64
2022/02/14 02:34:42;;;;;;;4.78;1.98;;;;;;;9.26;53.00;97859.38;2622777;54;20018;-64
2022/02/14 02:37:14;;;;;;;3.08;1.90;;;;;;;9.28;53.24;97852.06;2623624;54;20038;-67
2022/02/14 02:39:44;;;;;;;4.22;2.00;;;;;;;9.28;53.22;97840.72;2622806;47;20034;-62
2022/02/14 02:42:19;;;;;;;6.90;1.95;;;;;;;9.29;53.42;97845.78;2622497;54;20081;-64
2022/02/14 02:44:50;;;;;;;5.22;2.00;;;;;;;9.29;53.32;97845.78;2621503;54;20026;-65
2022/02/14 02:47:22;;;;;;;4.68;2.03;;;;;;;9.34;53.22;97843.31;2622451;54;20080;-65
2022/02/14 02:49:52;;;;;;;3.03;2.00;;;;;;;9.33;53.51;97832.97;2624264;54;20022;-65
2022/02/14 02:52:22;;;;;;;4.57;1.60;;;;;;;9.37;53.23;97821.00;2624131;54;20042;-63
2022/02/14 02:54:55;;;;;;;2.92;1.70;;;;;;;9.36;53.59;97819.38;2624514;54;20030;-65
2022/02/14 02:57:30;;;;;;;5.30;2.08;;;;;;;9.38;53.29;97812.06;2624809;54;20037;-66
2022/02/14 03:00:00;;;;;;;2.25;1.77;;;;;;;9.38;53.67;97825.25;2624087;46;20549;-65
2022/02/14 03:02:30;;;;;;;4.80;1.83;;;;;;;9.37;53.70;97815.72;2623738;54;20034;-64
2022/02/14 03:05:00;;;;;;;5.20;2.15;;;;;;;9.36;53.50;97819.38;2624332;54;20025;-65
2022/02/14 03:07:29;;;;;;;5.63;1.80;;;;;;;9.32;53.99;97820.81;2624138;54;20027;-65
2022/02/14 03:10:00;;;;;;;5.13;2.05;;;;;;;9.33;53.60;97810.06;2623685;47;20038;-64
2022/02/14 03:12:35;;;;;;;4.28;2.00;;;;;;;9.31;54.15;97812.09;2624453;54;20026;-64
2022/02/14 03:15:05;;;;;;;3.35;1.92;;;;;;;9.27;53.64;97812.72;2622399;54;20054;-66
2022/02/14 03:17:35;;;;;;;3.13;1.85;;;;;;;9.26;54.01;97803.97;2622026;47;20034;-65
2022/02/14 03:20:06;;;;;;;4.05;1.90;;;;;;;9.23;54.10;97807.06;2622391;31;20451;-66
2022/02/14 03:22:35;;;;;;;4.63;2.20;;;;;;;9.23;54.37;97803.63;2622731;46;20050;-63
2022/02/14 03:25:06;;;;;;;4.25;1.90;;;;;;;9.26;54.25;97801.34;2622780;54;20033;-65
2022/02/14 03:27:38;;;;;;;3.42;1.85;;;;;;;9.23;54.58;97793.06;2622119;54;20545;-62
2022/02/14 03:30:13;;;;;;;5.00;2.03;;;;;;;9.23;54.27;97787.78;2622165;46;20033;-63
2022/02/14 03:32:42;;;;;;;5.60;2.03;;;;;;;9.22;54.57;97792.22;2622749;54;20134;-63
2022/02/14 03:35:12;;;;;;;5.68;2.00;;;;;;;9.20;54.62;97791.66;2622113;54;20031;-62
2022/02/14 03:37:42;;;;;;;6.30;2.10;;;;;;;9.21;54.88;97784.53;2621903;54;20030;-62
2022/02/14 03:40:12;;;;;;;4.03;2.10;;;;;;;9.19;54.76;97779.50;2621511;54;20038;-65
2022/02/14 03:42:44;;;;;;;3.50;2.13;;;;;;;9.18;54.89;97777.84;2621219;54;20038;-63
2022/02/14 03:45:14;;;;;;;4.50;2.15;;;;;;;9.20;54.83;97777.66;2621640;54;20030;-63
2022/02/14 03:47:44;;;;;;;5.70;1.90;;;;;;;9.21;55.38;97768.72;2621618;54;20038;-64
2022/02/14 03:50:14;;;;;;;10.88;2.80;;;;;;;9.23;55.46;97758.78;2621569;54;20026;-66
2022/02/14 03:52:43;;;;;;;8.05;2.35;;;;;;;9.24;55.21;97774.38;2622203;54;20593;-62
2022/02/14 03:55:13;;;;;;;5.45;2.30;;;;;;;9.26;55.33;97771.53;2622332;54;20554;-63
2022/02/14 03:57:47;;;;;;;3.45;1.92;;;;;;;9.25;55.46;97762.00;2622452;54;20041;-63
2022/02/14 04:00:17;;;;;;;4.55;2.80;;;;;;;9.25;55.35;97765.44;2622727;54;20030;-65
2022/02/14 04:02:47;;;;;;;8.25;2.60;;;;;;;9.23;55.78;97774.59;2622590;54;20027;-66
2022/02/14 04:05:19;;;;;;;4.30;2.50;;;;;;;9.20;55.98;97767.09;2622753;54;20022;-65
2022/02/14 04:07:49;;;;;;;6.10;2.75;;;;;;;9.18;55.85;97772.56;2621930;54;20034;-63
2022/02/14 04:10:20;;;;;;;5.53;2.50;;;;;;;9.19;55.74;97768.94;2623236;54;20026;-64
2022/02/14 04:12:52;;;;;;;5.47;2.28;;;;;;;9.22;56.19;97765.88;2624278;54;20030;-65
2022/02/14 04:15:22;;;;;;;4.78;2.40;;;;;;;9.23;55.97;97769.34;2623798;46;20030;-65
2022/02/14 04:17:52;;;;;;;8.90;3.13;;;;;;;9.18;55.93;97762.88;2624997;39;20093;-64
2022/02/14 04:20:22;;;;;;;5.45;2.70;;;;;;;9.18;55.93;97765.50;2624511;54;20026;-65
2022/02/14 04:22:52;;;;;;;5.65;2.28;;;;;;;9.16;56.19;97764.06;2624022;46;20030;-64
2022/02/14 04:25:22;;;;;;;6.97;3.08;;;;;;;9.13;56.29;97770.56;2624121;46;20041;-65
2022/02/14 04:27:54;;;;;;;7.95;2.88;;;;;;;9.12;56.24;97761.03;2624398;54;20061;-64
2022/02/14 04:30:24;;;;;;;14.30;2.95;;;;;;;9.10;56.18;97763.09;2624856;54;20026;-64
2022/02/14 04:32:56;;;;;;;7.25;2.17;;;;;;;9.10;56.30;97762.25;2625451;54;20037;-65
2022/02/14 04:35:26;;;;;;;5.97;2.25;;;;;;;9.10;56.66;97772.81;2624361;54;20033;-64
2022/02/14 04:37:59;;;;;;;4.88;2.13;;;;;;;9.08;56.33;97772.22;2624485;54;20035;-64
2022/02/14 04:40:31;;;;;;;10.27;2.38;;;;;;;9.07;56.83;97774.03;2624301;54;20130;-65
2022/02/14 04:43:04;;;;;;;5.63;2.30;;;;;;;9.10;56.61;97764.91;2624950;39;20675;-64
2022/02/14 04:45:37;;;;;;;5.20;2.50;;;;;;;9.12;56.51;97768.94;2623591;54;20117;-65
2022/02/14 04:48:07;;;;;;;6.32;2.47;;;;;;;9.16;56.89;97777.25;2624295;39;20441;-65
2022/02/14 04:50:38;;;;;;;8.20;2.40;;;;;;;9.16;56.76;97778.06;2624072;47;20035;-63
2022/02/14 04:53:07;;;;;;;6.07;2.65;;;;;;;9.18;56.86;97778.69;2624192;54;20031;-66
2022/02/14 04:55:39;;;;;;;7.82;2.30;;;;;;;9.24;56.76;97778.84;2624266;39;20488;-65
2022/02/14 04:58:11;;;;;;;4.88;2.25;;;;;;;9.26;56.99;97771.53;2623883;46;20034;-65
2022/02/14 05:00:41;;;;;;;3.90;2.15;;;;;;;9.27;56.78;97784.53;2624764;54;20022;-65
2022/02/14 05:03:11;;;;;;;8.35;2.67;;;;;;;9.32;56.45;97782.06;2624467;54;20030;-65
2022/02/14 05:05:40;;;;;;;6.00;2.22;;;;;;;9.35;56.34;97775.56;2624523;54;20030;-64
2022/02/14 05:08:10;;;;;;;6.85;2.50;;;;;;;9.39;56.83;97776.78;2624348;54;20057;-64
2022/02/14 05:10:40;;;;;;;3.80;2.00;;;;;;;9.41;56.41;97774.72;2624026;54;20027;-65
2022/02/14 05:13:12;;;;;;;6.13;2.95;;;;;;;9.44;56.70;97774.31;2624901;39;20458;-65
2022/02/14 05:15:42;;;;;;;4.03;2.03;;;;;;;9.46;56.41;97782.81;2622511;54;20552;-63
2022/02/14 05:18:12;;;;;;;7.25;2.90;;;;;;;9.48;56.29;97772.06;2619239;47;20019;-64
2022/02/14 05:20:41;;;;;;;7.10;2.45;;;;;;;9.51;56.49;97763.72;2620048;54;20026;-64
2022/02/14 05:23:11;;;;;;;7.38;2.40;;;;;;;9.50;56.14;97768.19;2619489;54;20039;-63
2022/02/14 05:25:41;;;;;;;5.72;2.28;;;;;;;9.57;55.83;97761.03;2618900;54;20035;-62
2022/02/14 05:28:14;;;;;;;7.80;2.88;;;;;;;9.57;56.10;97761.03;2619093;54;20050;-63
2022/02/14 05:30:43;;;;;;;6.65;2.90;;;;;;;9.59;56.25;97766.09;2621391;54;20043;-64
2022/02/14 05:33:13;;;;;;;4.63;2.78;;;;;;;9.63;55.91;97762.84;2621756;31;20478;-64
2022/02/14 05:35:43;;;;;;;6.90;2.47;;;;;;;9.64;56.17;97764.47;2619474;54;20037;-65
2022/02/14 05:38:13;;;;;;;4.68;2.65;;;;;;;9.68;56.28;97767.50;2619280;54;20041;-64
2022/02/14 05:40:43;;;;;;;9.43;2.63;;;;;;;9.69;56.18;97771.75;2619244;39;20450;-65
2022/02/14 05:43:17;;;;;;;5.85;2.40;;;;;;;9.74;56.17;97765.81;2619127;39;20411;-63
2022/02/14 05:45:46;;;;;;;4.72;2.10;;;;;;;9.75;56.06;97770.06;2619158;39;20462;-64
2022/02/14 05:48:17;;;;;;;5.68;2.20;;;;;;;9.75;56.07;97757.69;2618762;54;20027;-62
2022/02/14 05:50:46;;;;;;;5.28;2.13;;;;;;;9.77;56.25;97768.03;2619077;54;20038;-65
2022/02/14 05:53:16;;;;;;;7.43;2.80;;;;;;;9.78;56.25;97772.28;2618803;54;20081;-63
2022/02/14 05:55:45;;;;;;;7.78;2.13;;;;;;;9.81;56.20;97785.06;2618560;54;20090;-63
2022/02/14 05:58:18;;;;;;;6.72;2.35;;;;;;;9.85;56.34;97779.16;2619061;54;20030;-63
2022/02/14 06:00:48;;;;;;;4.22;1.98;;;;;;;9.81;56.65;97767.41;2621249;54;20039;-63
2022/02/14 06:03:17;;;;;;;8.20;2.60;;;;;;;9.79;56.63;97774.72;2620830;54;20041;-63
2022/02/14 06:05:47;;;;;;;4.53;2.10;;;;;;;9.82;56.87;97769.00;2620061;54;20030;-64
2022/02/14 06:08:16;;;;;;;5.25;2.15;;;;;;;9.84;56.37;97777.53;2620697;54;20041;-64
2022/02/14 06:10:46;;;;;;;11.20;2.67;;;;;;;9.82;56.35;97774.28;2620671;54;20038;-64
2022/02/14 06:13:19;;;;;;;7.82;2.47;;;;;;;9.86;56.50;97772.03;2621033;39;20706;-62
2022/02/14 06:15:48;;;;;;;7.30;2.80;;;;;;;9.84;56.68;97767.00;2621802;54;20043;-64
2022/02/14 06:18:18;;;;;;;5.05;2.30;;;;;;;9.84;56.74;97768.81;2622966;39;20434;-64
2022/02/14 06:20:48;;;;;;;6.78;2.33;;;;;;;9.86;56.98;97775.47;2621707;54;20030;-63
2022/02/14 06:23:17;;;;;;;6.47;2.40;;;;;;;9.88;56.81;97783.22;2622302;54;20035;-63
2022/02/14 06:25:47;;;;;;;8.60;2.72;;;;;;;9.87;56.41;97773.66;2620347;54;20038;-63
2022/02/14 06:28:19;;;;;;;7.78;2.75;;;;;;;9.87;56.68;97768.38;2619361;54;20045;-64
2022/02/14 06:30:49;;;;;;;11.45;2.30;;;;;;;9.90;56.89;97778.50;2619743;39;20456;-63
2022/02/14 06:33:18;;;;;;;6.30;2.65;;;;;;;9.88;56.88;97770.00;2618960;54;20031;-63
2022/02/14 06:35:48;;;;;;;5.38;2.15;;;;;;;9.88;57.25;97776.09;2618186;54;20037;-63
2022/02/14 06:38:18;;;;;;;4.50;2.35;;;;;;;9.93;56.65;97773.63;2618176;47;20069;-63
2022/02/14 06:40:47;;;;;;;6.95;2.20;;;;;;;9.89;57.17;97764.50;2624546;39;20410;-64
2022/02/14 06:43:19;;;;;;;4.97;2.40;;;;;;;9.91;56.91;97775.66;2623351;54;20049;-62
2022/02/14 06:45:49;;;;;;;4.57;2.47;;;;;;;9.92;57.18;97776.47;2623515;54;20601;-63
2022/02/14 06:48:19;;;;;;;5.90;2.47;;;;;;;9.93;57.34;97778.91;2619918;54;20045;-63
2022/02/14 06:50:49;;;;;;;8.70;2.40;;;;;;;9.91;57.46;97772.19;2618930;54;20034;-63
2022/02/14 06:53:18;;;;;;;4.13;2.70;;;;;;;9.91;57.77;97788.84;2619068;54;20031;-64
2022/02/14 06:55:48;;;;;;;4.45;2.10;;;;;;;9.91;57.53;97773.00;2618083;54;20126;-64
2022/02/14 06:58:20;;;;;;;5.05;2.17;;;;;;;9.93;57.97;97773.63;2618509;54;20091;-64
2022/02/14 07:00:50;;;;;;;5.43;2.33;;;;;;;9.89;58.32;97775.06;2619190;39;20437;-62
2022/02/14 07:03:19;;;;;;;4.75;2.42;;;;;;;9.89;58.60;97771.63;2618502;54;20034;-63
2022/02/14 07:05:49;;;;;;;4.45;2.10;;;;;;;9.88;58.40;97770.00;2617814;47;20027;-63
2022/02/14 07:08:18;;;;;;;5.97;2.22;;;;;;;9.88;59.01;97770.81;2618563;54;20042;-63
2022/02/14 07:10:48;;;;;;;5.93;2.20;;;;;;;9.88;59.06;97770.81;2618291;54;20081;-63
2022/02/14 07:13:20;;;;;;;5.50;2.35;;;;;;;9.88;59.74;97775.28;2618716;54;20038;-63
2022/02/14 07:15:50;;;;;;;7.97;2.10;;;;;;;9.88;59.84;97776.09;2618040;54;20039;-63
2022/02/14 07:18:19;;;;;;;6.85;2.25;;;;;;;9.91;60.38;97775.66;2618242;54;20541;-63
2022/02/14 07:20:49;;;;;;;5.05;2.10;;;;;;;9.92;60.60;97773.84;2619126;54;20031;-63
2022/02/14 07:23:18;;;;;;;6.32;2.80;;;;;;;9.91;61.09;97774.84;2618941;54;20038;-64
2022/02/14 07:25:48;;;;;;;7.47;3.75;;;;;;;9.92;61.59;97772.00;2618861;54;20035;-63
2022/02/14 07:28:21;;;;;;;5.78;2.88;;;;;;;10.03;61.84;97770.50;2618911;54;20042;-62
2022/02/14 07:30:50;;;;;;;8.25;2.60;;;;;;;10.11;61.68;97782.63;2618772;39;20821;-62
2022/02/14 07:33:20;;;;;;;10.13;2.50;;;;;;;10.12;61.51;97779.78;2618423;54;20026;-63
2022/02/14 07:35:50;;;;;;;5.55;2.17;;;;;;;10.15;60.99;97773.25;2618542;54;20033;-64
2022/02/14 07:38:20;;;;;;;5.40;2.15;;;;;;;10.10;61.17;97778.38;2618661;54;20027;-62
2022/02/14 07:40:50;;;;;;;7.55;3.10;;;;;;;10.08;61.32;97777.78;2618352;54;20045;-64
2022/02/14 07:43:23;;;;;;;6.60;2.63;;;;;;;10.04;61.50;97782.69;2618609;54;20053;-62
2022/02/14 07:45:53;;;;;;;5.40;2.80;;;;;;;10.00;61.68;97778.88;2617520;47;20031;-62
2022/02/14 07:48:22;;;;;;;7.43;3.47;;;;;;;9.99;61.23;97789.63;2618492;54;20038;-63
2022/02/14 07:50:52;;;;;;;7.47;2.90;;;;;;;10.00;61.33;97780.66;2618591;54;20679;-62
2022/02/14 07:53:22;;;;;;;7.15;2.58;;;;;;;10.02;61.30;97784.72;2617777;47;20166;-62
2022/02/14 07:55:51;;;;;;;4.90;2.67;;;;;;;10.01;61.27;97783.13;2618370;54;20561;-64
2022/02/14 07:58:23;;;;;;;6.85;1.67;;;;;;;10.00;61.22;97786.78;2618616;54;20033;-63
2022/02/14 08:00:53;;;;;;;5.93;3.20;;;;;;;9.99;61.32;97779.88;2618573;54;20038;-62
2022/02/14 08:03:23;;;;;;;4.78;2.40;;;;;;;10.03;60.84;97791.63;2618238;47;20026;-62
2022/02/14 08:05:52;;;;;;;3.78;2.17;;;;;;;10.06;61.02;97777.19;2618341;54;20026;-63
2022/02/14 08:08:22;;;;;;;5.75;3.13;;;;;;;10.09;60.77;97782.84;2618211;54;20605;-63
2022/02/14 08:10:55;;;;;;;9.23;3.88;;;;;;;10.12;60.69;97784.25;2618223;54;20550;-63
2022/02/14 08:13:27;;;;;;;5.75;3.08;;;;;;;10.17;60.99;97795.00;2618296;54;20031;-63
2022/02/14 08:15:57;;;;;;;5.10;2.35;;;;;;;10.20;60.84;97783.97;2618358;54;20581;-64
2022/02/14 08:18:26;;;;;;;8.10;2.80;;;;;;;10.23;60.21;97777.47;2618198;54;20042;-64
2022/02/14 08:20:58;;;;;;;8.02;2.60;;;;;;;10.26;60.50;97777.06;2618342;54;20033;-62
2022/02/14 08:23:27;;;;;;;10.07;5.65;;;;;;;10.30;60.44;97779.06;2618222;54;20022;-63
2022/02/14 08:25:57;;;;;;;18.95;8.90;;;;;;;10.37;60.12;97773.75;2618561;54;20042;-63
2022/02/14 08:28:29;;;;;;;9.73;5.90;;;;;;;10.49;60.17;97781.75;2618640;39;20438;-63
2022/02/14 08:30:59;;;;;;;5.53;2.25;;;;;;;10.55;59.46;97770.31;2617924;47;20041;-63
2022/02/14 08:33:30;;;;;;;4.40;2.15;;;;;;;10.51;59.59;97777.88;2618306;54;20038;-62
2022/02/14 08:35:59;;;;;;;5.03;2.15;;;;;;;10.49;59.79;97776.47;2618439;54;20117;-63
2022/02/14 08:38:31;;;;;;;3.30;2.08;;;;;;;10.50;60.02;97772.81;2618363;54;20034;-63
2022/02/14 08:41:00;;;;;;;4.40;2.00;;;;;;;10.56;59.67;97767.44;2617923;47;20031;-62
2022/02/14 08:43:33;;;;;;;6.63;3.10;;;;;;;10.61;59.87;97775.56;2618748;54;20026;-63
2022/02/14 08:46:07;;;;;;;5.68;2.72;;;;;;;10.71;59.27;97774.25;2623404;54;20034;-64
2022/02/14 08:48:37;;;;;;;7.25;2.40;;;;;;;10.75;59.44;97767.50;2623002;54;20035;-64
2022/02/14 08:51:07;;;;;;;5.55;2.53;;;;;;;10.78;59.35;97761.78;2623548;54;20022;-64
2022/02/14 08:53:37;;;;;;;5.03;2.08;;;;;;;10.84;59.07;97782.03;2623125;54;20087;-64
2022/02/14 08:56:07;;;;;;;2.95;2.10;;;;;;;10.87;58.88;97760.47;2623053;47;20087;-62
2022/02/14 08:58:42;;;;;;;7.30;2.95;;;;;;;10.91;58.90;97754.50;2623972;39;20470;-62
2022/02/14 09:01:12;;;;;;;4.82;2.15;;;;;;;10.99;58.58;97764.00;2624244;54;20569;-65
2022/02/14 09:03:42;;;;;;;5.50;2.65;;;;;;;11.02;58.68;97766.19;2624101;54;20058;-63
2022/02/14 09:06:12;;;;;;;3.50;2.10;;;;;;;11.03;58.84;97761.72;2623316;54;20078;-64
2022/02/14 09:08:42;;;;;;;4.35;2.10;;;;;;;11.01;58.89;97769.03;2619973;54;20034;-63
2022/02/14 09:11:12;;;;;;;9.05;2.60;;;;;;;11.03;58.88;97765.16;2619695;54;20026;-64
2022/02/14 09:13:45;;;;;;;6.20;2.25;;;;;;;11.09;58.55;97771.41;2619540;51;20027;-62
2022/02/14 09:16:15;;;;;;;7.65;2.22;;;;;;;11.14;58.58;97767.06;2619255;54;20038;-62
2022/02/14 09:18:44;;;;;;;3.22;2.00;;;;;;;11.29;57.75;97758.75;2619237;54;20034;-61
2022/02/14 09:21:15;;;;;;;2.80;2.08;;;;;;;11.44;58.08;97765.50;2618478;47;20085;-63
2022/02/14 09:23:45;;;;;;;7.60;2.25;;;;;;;11.58;57.75;97759.00;2619345;54;20038;-60
2022/02/14 09:26:15;;;;;;;6.03;2.35;;;;;;;11.58;56.92;97759.00;2619402;54;20030;-60
2022/02/14 09:28:47;;;;;;;6.20;2.40;;;;;;;11.60;57.25;97746.34;2619470;54;20542;-61
2022/02/14 09:31:18;;;;;;;5.78;2.85;;;;;;;11.63;57.20;97754.66;2620940;54;20034;-59
2022/02/14 09:33:47;;;;;;;6.40;3.70;;;;;;;11.65;57.21;97755.22;2625124;54;20027;-62
2022/02/14 09:36:18;;;;;;;9.90;6.70;;;;;;;11.73;56.91;97753.31;2624239;39;20418;-62
2022/02/14 09:38:49;;;;;;;11.05;4.22;;;;;;;11.72;56.99;97744.56;2623176;47;20075;-62
2022/02/14 09:41:18;;;;;;;4.30;2.38;;;;;;;11.76;56.64;97745.72;2623446;39;20710;-62
2022/02/14 09:43:50;;;;;;;4.57;1.70;;;;;;;11.75;57.04;97759.97;2622815;47;20046;-59
2022/02/14 09:46:21;;;;;;;3.35;1.77;;;;;;;11.73;57.04;97732.13;2623909;54;20042;-62
2022/02/14 09:48:51;;;;;;;5.47;1.90;;;;;;;11.75;57.08;97728.19;2622454;54;20026;-60
2022/02/14 09:51:21;;;;;;;5.65;1.88;;;;;;;11.83;56.72;97733.19;2623092;54;20557;-63
2022/02/14 09:53:51;;;;;;;7.43;2.47;;;;;;;11.89;56.55;97729.66;2619736;54;20039;-63
2022/02/14 09:56:22;;;;;;;4.93;2.10;;;;;;;11.98;56.79;97731.97;2621816;54;20026;-62
2022/02/14 09:58:54;;;;;;;4.93;2.15;;;;;;;12.00;56.27;97733.38;2622753;54;20035;-63
2022/02/14 10:01:26;;;;;;;4.50;2.00;;;;;;;12.06;56.84;97734.28;2622883;54;20046;-63
2022/02/14 10:03:57;;;;;;;3.45;1.70;;;;;;;12.05;57.04;97736.13;2623254;54;20045;-62
2022/02/14 10:06:28;;;;;;;3.15;1.92;;;;;;;12.05;57.23;97727.41;2623062;47;20026;-61
2022/02/14 10:09:09;;;;;;;5.47;1.65;;;;;;;11.89;58.05;97747.41;2623175;54;20041;-63
2022/02/14 10:11:39;;;;;;;4.80;2.10;;;;;;;11.82;58.53;97750.09;2623272;54;20037;-63
2022/02/14 10:14:21;;;;;;;4.35;2.35;;;;;;;11.92;59.04;97735.53;2623336;54;20031;-62
2022/02/14 10:17:01;;;;;;;3.67;2.08;;;;;;;12.01;59.09;97758.03;2623305;39;20479;-62
2022/02/14 10:19:32;;;;;;;5.25;1.88;;;;;;;12.10;59.18;97744.19;2621816;54;20027;-63
2022/02/14 10:22:02;;;;;;;3.95;1.90;;;;;;;12.11;58.90;97745.00;2621716;46;20038;-63
2022/02/14 10:24:40;;;;;;;3.03;2.03;;;;;;;12.04;58.31;97750.44;2622957;39;20406;-64
2022/02/14 10:27:11;;;;;;;6.40;2.08;;;;;;;12.05;58.03;97757.34;2621949;54;20038;-64
2022/02/14 10:29:45;;;;;;;5.00;1.83;;;;;;;12.07;58.37;97754.44;2622070;54;20034;-63
2022/02/14 10:32:20;;;;;;;4.20;1.70;;;;;;;12.06;57.97;97751.00;2623030;39;20447;-62
2022/02/14 10:34:52;;;;;;;6.00;1.80;;;;;;;12.07;57.43;97749.16;2620804;47;20098;-63
2022/02/14 10:37:40;;;;;;;3.50;1.73;;;;;;;12.08;57.75;97761.34;2621935;54;20031;-64
2022/02/14 10:40:13;;;;;;;4.18;2.00;;;;;;;12.11;57.40;97758.25;2621197;54;20038;-65
2022/02/14 10:42:43;;;;;;;7.82;2.08;;;;;;;12.27;57.18;97748.84;2623189;54;20046;-63
2022/02/14 10:45:16;;;;;;;3.10;1.52;;;;;;;12.37;56.80;97768.44;2621388;54;20048;-61
2022/02/14 10:47:47;;;;;;;6.67;1.80;;;;;;;12.46;56.76;97758.31;2621985;54;20046;-63
2022/02/14 10:50:18;;;;;;;3.22;1.77;;;;;;;12.55;56.49;97756.91;2622564;54;20057;-63
2022/02/14 10:52:52;;;;;;;4.63;2.20;;;;;;;12.63;56.39;97761.06;2619354;54;20526;-63
2022/02/14 10:55:25;;;;;;;3.67;1.63;;;;;;;12.53;56.28;97753.72;2618695;54;20050;-64
2022/02/14 10:57:58;;;;;;;6.88;2.00;;;;;;;12.53;55.91;97756.34;2618779;54;20038;-63
2022/02/14 11:00:32;;;;;;;3.58;1.98;;;;;;;12.58;56.04;97755.66;2619446;54;20061;-64
2022/02/14 11:03:06;;;;;;;6.82;2.15;;;;;;;12.63;55.77;97761.06;2620211;54;20137;-64
2022/02/14 11:05:38;;;;;;;2.73;1.73;;;;;;;12.72;55.93;97758.88;2620442;54;20023;-64
2022/02/14 11:08:08;;;;;;;6.93;1.90;;;;;;;12.71;55.51;97757.28;2621351;54;20045;-62
2022/02/14 11:10:44;;;;;;;4.82;1.83;;;;;;;12.70;55.52;97771.56;2621527;54;20027;-62
2022/02/14 11:13:16;;;;;;;4.00;2.03;;;;;;;12.52;55.57;97765.31;2620588;54;20035;-63
2022/02/14 11:15:50;;;;;;;4.72;2.28;;;;;;;12.36;55.93;97763.34;2619287;54;20023;-68
2022/02/14 11:18:21;;;;;;;6.10;2.15;;;;;;;12.31;56.63;97764.03;2617616;54;20808;-66
2022/02/14 11:20:50;;;;;;;6.20;2.35;;;;;;;12.20;56.84;97764.84;2616983;47;20121;-66
2022/02/14 11:23:23;;;;;;;2.60;1.77;;;;;;;12.11;56.61;97755.59;2618046;54;20041;-66
2022/02/14 11:25:59;;;;;;;8.65;2.22;;;;;;;12.11;57.03;97769.66;2617363;47;20037;-66
2022/02/14 11:28:34;;;;;;;9.82;3.88;;;;;;;12.09;56.96;97760.34;2617387;47;20038;-68
2022/02/14 11:31:17;;;;;;;7.10;2.17;;;;;;;11.96;57.48;97761.34;2617290;54;20033;-68
2022/02/14 11:33:55;;;;;;;5.97;2.13;;;;;;;11.83;57.70;97769.47;2617526;54;20038;-69
2022/02/14 11:36:26;;;;;;;5.60;2.15;;;;;;;11.74;57.84;97771.59;2618000;46;20046;-68
2022/02/14 11:38:58;;;;;;;3.53;1.98;;;;;;;11.71;58.00;97761.44;2617286;54;20027;-70
2022/02/14 11:41:30;;;;;;;4.90;1.85;;;;;;;11.65;58.28;97767.66;2617798;54;20050;-68
2022/02/14 11:44:25;;;;;;;5.03;1.95;;;;;;;11.65;57.97;97771.09;2617563;54;20030;-69
2022/02/14 11:47:17;;;;;;;3.17;2.05;;;;;;;11.58;58.09;97757.16;2617907;54;20042;-68
2022/02/14 11:49:49;;;;;;;3.67;1.80;;;;;;;11.61;58.54;97769.94;2618204;54;20122;-68
2022/02/14 11:52:34;;;;;;;5.05;1.77;;;;;;;11.69;58.60;97765.38;2619501;54;20035;-68
2022/02/14 11:55:08;;;;;;;4.57;2.25;;;;;;;11.71;58.28;97758.81;2621570;54;20041;-68
2022/02/14 11:57:39;;;;;;;6.22;1.85;;;;;;;11.62;57.96;97755.66;2623308;47;20057;-68
2022/02/14 12:00:30;;;;;;;4.60;2.03;;;;;;;11.61;58.49;97758.56;2628183;39;20418;-67